createdAt,value
2023-01-03T00:02:23.528Z,10.51
2023-01-03T00:04:51.007Z,10.95
2023-01-03T00:07:18.386Z,10.99
2023-01-03T00:09:47.101Z,11.02
2023-01-03T00:12:14.376Z,11.01
2023-01-03T00:14:43.606Z,10.87
2023-01-03T00:17:12.005Z,11.07
2023-01-03T00:19:41.279Z,10.81
2023-01-03T00:22:09.004Z,10.80
2023-01-03T00:24:37.015Z,10.61
2023-01-03T00:27:05.510Z,10.82
2023-01-03T00:29:33.201Z,11.13
2023-01-03T00:32:00.520Z,10.99
2023-01-03T00:34:28.164Z,11.10
2023-01-03T00:36:56.167Z,11.14
2023-01-03T00:39:23.736Z,11.17
2023-01-03T00:41:51.514Z,11.16
2023-01-03T00:44:20.710Z,11.02
2023-01-03T00:46:47.971Z,10.92
2023-01-03T00:49:15.530Z,11.12
2023-01-03T00:51:43.959Z,11.08
2023-01-03T00:54:12.636Z,11.08
2023-01-03T00:56:42.159Z,10.56
2023-01-03T00:59:10.302Z,11.02
2023-01-03T01:01:46.864Z,11.00
2023-01-03T01:04:16.962Z,11.21
2023-01-03T01:06:47.137Z,11.21
2023-01-03T01:09:16.732Z,11.16
2023-01-03T01:11:44.554Z,11.53
2023-01-03T01:14:15.913Z,11.69
2023-01-03T01:16:45.256Z,11.65
2023-01-03T01:19:12.022Z,11.64
2023-01-03T01:21:39.784Z,11.73
2023-01-03T01:24:12.781Z,11.55
2023-01-03T01:26:43.466Z,11.61
2023-01-03T01:29:12.615Z,11.82
2023-01-03T01:31:40.288Z,11.97
2023-01-03T01:34:09.663Z,11.77
2023-01-03T01:36:38.434Z,11.82
2023-01-03T01:39:10.215Z,12.03
2023-01-03T01:41:38.239Z,12.05
2023-01-03T01:44:06.362Z,11.83
2023-01-03T01:46:34.102Z,11.70
2023-01-03T01:49:03.297Z,11.75
2023-01-03T01:51:36.308Z,11.87
2023-01-03T01:54:07.804Z,11.42
2023-01-03T01:56:38.996Z,11.84
2023-01-03T01:59:05.795Z,11.70
2023-01-03T02:01:34.805Z,12.00
2023-01-03T02:04:06.086Z,11.94
2023-01-03T02:06:35.112Z,11.58
2023-01-03T02:09:02.409Z,11.68
2023-01-03T02:11:41.733Z,11.66
2023-01-03T02:14:24.649Z,12.04
2023-01-03T02:17:05.833Z,12.00
2023-01-03T02:20:07.625Z,12.28
2023-01-03T02:23:05.858Z,11.99
2023-01-03T02:26:07.247Z,11.83
2023-01-03T02:29:07.138Z,11.82
2023-01-03T02:31:44.972Z,12.07
2023-01-03T02:34:20.480Z,11.90
2023-01-03T02:36:57.743Z,12.65
2023-01-03T02:39:30.056Z,12.22
2023-01-03T02:42:01.202Z,12.46
2023-01-03T02:44:34.936Z,11.67
2023-01-03T02:47:07.404Z,12.02
2023-01-03T02:49:42.080Z,12.43
2023-01-03T02:52:14.772Z,12.37
2023-01-03T02:54:49.441Z,12.54
2023-01-03T02:57:22.306Z,12.24
2023-01-03T02:59:53.833Z,12.22
2023-01-03T03:02:27.199Z,12.13
2023-01-03T03:04:56.882Z,11.84
2023-01-03T03:07:27.243Z,11.93
2023-01-03T03:09:56.621Z,12.46
2023-01-03T03:12:25.674Z,12.49
2023-01-03T03:14:55.020Z,12.57
2023-01-03T03:17:29.180Z,12.74
2023-01-03T03:20:03.137Z,12.96
2023-01-03T03:22:38.765Z,12.99
2023-01-03T03:25:12.845Z,12.87
2023-01-03T03:27:45.456Z,12.90
2023-01-03T03:30:19.485Z,13.10
2023-01-03T03:32:51.966Z,13.14
2023-01-03T03:35:22.889Z,12.64
2023-01-03T03:37:55.995Z,13.45
2023-01-03T03:40:26.630Z,12.99
2023-01-03T03:42:59.194Z,12.73
2023-01-03T03:45:35.118Z,12.98
2023-01-03T03:48:09.536Z,12.45
2023-01-03T03:50:40.806Z,12.93
2023-01-03T03:53:11.190Z,12.60
2023-01-03T03:55:41.829Z,12.08
2023-01-03T03:58:15.375Z,12.05
2023-01-03T04:00:44.539Z,12.54
2023-01-03T04:03:14.321Z,12.53
2023-01-03T04:05:46.417Z,12.59
2023-01-03T04:08:14.179Z,12.51
2023-01-03T04:10:41.207Z,12.96
2023-01-03T04:13:08.866Z,12.87
2023-01-03T04:15:36.096Z,13.37
2023-01-03T04:18:03.551Z,12.91
2023-01-03T04:20:32.455Z,12.39
2023-01-03T04:22:59.501Z,12.92
2023-01-03T04:25:27.717Z,13.07
2023-01-03T04:27:54.518Z,12.64
2023-01-03T04:30:21.708Z,12.39
2023-01-03T04:32:48.895Z,13.32
2023-01-03T04:35:16.236Z,13.77
2023-01-03T04:37:45.027Z,13.50
2023-01-03T04:40:12.562Z,13.40
2023-01-03T04:42:40.782Z,13.50
2023-01-03T04:45:09.570Z,13.57
2023-01-03T04:47:36.828Z,13.19
2023-01-03T04:50:05.207Z,12.85
2023-01-03T04:52:33.446Z,13.09
2023-01-03T04:55:02.342Z,13.38
2023-01-03T04:57:29.964Z,13.50
2023-01-03T04:59:57.118Z,13.33
2023-01-03T05:02:23.849Z,13.43
2023-01-03T05:04:50.850Z,13.30
2023-01-03T05:07:18.009Z,13.42
2023-01-03T05:09:46.301Z,13.30
2023-01-03T05:12:15.268Z,13.62
2023-01-03T05:14:42.758Z,13.60
2023-01-03T05:17:10.155Z,14.25
2023-01-03T05:19:43.738Z,13.43
2023-01-03T05:22:12.566Z,14.38
2023-01-03T05:24:39.311Z,13.70
2023-01-03T05:27:07.356Z,14.19
2023-01-03T05:29:37.437Z,14.23
2023-01-03T05:32:05.909Z,14.27
2023-01-03T05:34:32.958Z,14.30
2023-01-03T05:37:00.520Z,13.71
2023-01-03T05:39:27.903Z,14.26
2023-01-03T05:41:55.120Z,13.30
2023-01-03T05:44:22.519Z,13.78
2023-01-03T05:46:51.895Z,14.07
2023-01-03T05:49:19.199Z,13.95
2023-01-03T05:51:46.580Z,14.28
2023-01-03T05:54:15.596Z,14.23
2023-01-03T05:56:42.986Z,14.03
2023-01-03T05:59:16.307Z,14.21
2023-01-03T06:01:43.641Z,14.25
2023-01-03T06:04:12.793Z,13.82
2023-01-03T06:06:39.597Z,14.03
2023-01-03T06:09:06.951Z,13.92
2023-01-03T06:11:34.171Z,13.33
2023-01-03T06:14:02.065Z,14.71
2023-01-03T06:16:29.576Z,14.22
2023-01-03T06:18:57.135Z,14.57
2023-01-03T06:21:26.298Z,14.48
2023-01-03T06:23:53.721Z,14.62
2023-01-03T06:26:22.960Z,14.30
2023-01-03T06:28:51.288Z,14.57
2023-01-03T06:31:19.398Z,14.37
2023-01-03T06:33:47.327Z,14.32
2023-01-03T06:36:16.916Z,13.90
2023-01-03T06:38:45.037Z,14.88
2023-01-03T06:41:13.828Z,14.35
2023-01-03T06:43:41.535Z,14.82
2023-01-03T06:46:10.737Z,14.55
2023-01-03T06:48:37.492Z,14.85
2023-01-03T06:51:05.132Z,15.13
2023-01-03T06:53:35.467Z,14.29
2023-01-03T06:56:05.764Z,14.93
2023-01-03T06:58:33.524Z,13.72
2023-01-03T07:01:02.784Z,14.99
2023-01-03T07:03:30.427Z,14.96
2023-01-03T07:05:57.781Z,14.97
2023-01-03T07:08:26.061Z,15.20
2023-01-03T07:10:54.621Z,15.10
2023-01-03T07:13:23.440Z,14.83
2023-01-03T07:15:51.138Z,15.19
2023-01-03T07:18:19.772Z,15.23
2023-01-03T07:20:47.200Z,15.28
2023-01-03T07:23:14.677Z,14.53
2023-01-03T07:25:42.876Z,15.27
2023-01-03T07:28:11.268Z,15.51
2023-01-03T07:30:41.938Z,15.89
2023-01-03T07:33:11.205Z,15.31
2023-01-03T07:35:38.880Z,14.80
2023-01-03T07:38:06.821Z,15.37
2023-01-03T07:40:34.649Z,15.31
2023-01-03T07:43:01.978Z,15.52
2023-01-03T07:45:29.215Z,15.68
2023-01-03T07:47:57.939Z,15.46
2023-01-03T07:50:25.114Z,15.88
2023-01-03T07:52:52.261Z,16.11
2023-01-03T07:55:19.740Z,15.97
2023-01-03T07:57:47.118Z,15.99
2023-01-03T08:00:15.681Z,16.01
2023-01-03T08:02:43.353Z,16.14
2023-01-03T08:05:12.450Z,16.21
2023-01-03T08:07:39.803Z,15.86
2023-01-03T08:10:08.019Z,16.34
2023-01-03T08:12:35.574Z,15.48
2023-01-03T08:15:02.760Z,16.17
2023-01-03T08:17:30.196Z,16.03
2023-01-03T08:19:57.328Z,16.18
2023-01-03T08:22:25.437Z,16.15
2023-01-03T08:24:52.916Z,15.99
2023-01-03T08:27:20.666Z,16.28
2023-01-03T08:29:48.025Z,16.35
2023-01-03T08:32:17.282Z,16.53
2023-01-03T08:34:44.700Z,16.85
2023-01-03T08:37:14.552Z,16.83
2023-01-03T08:39:50.064Z,16.64
2023-01-03T08:42:18.916Z,16.60
2023-01-03T08:44:45.655Z,16.90
2023-01-03T08:47:15.588Z,16.76
2023-01-03T08:49:43.454Z,15.68
2023-01-03T08:52:10.903Z,16.24
2023-01-03T08:54:37.920Z,16.51
2023-01-03T08:57:06.170Z,16.89
2023-01-03T08:59:32.877Z,16.93
2023-01-03T09:02:00.103Z,17.55
2023-01-03T09:04:26.905Z,17.36
2023-01-03T09:06:53.650Z,17.50
2023-01-03T09:09:20.626Z,16.96
2023-01-03T09:11:47.382Z,17.30
2023-01-03T09:14:16.425Z,16.99
2023-01-03T09:16:48.787Z,17.05
2023-01-03T09:19:16.693Z,17.65
2023-01-03T09:21:44.311Z,17.22
2023-01-03T09:24:11.829Z,18.11
2023-01-03T09:26:39.070Z,18.00
2023-01-03T09:29:06.586Z,18.10
2023-01-03T09:31:35.572Z,17.51
2023-01-03T09:34:03.059Z,17.62
2023-01-03T09:36:30.141Z,18.36
2023-01-03T09:38:57.198Z,18.24
2023-01-03T09:41:26.627Z,17.87
2023-01-03T09:44:00.698Z,17.77
2023-01-03T09:46:29.762Z,18.33
2023-01-03T09:48:59.918Z,18.35
2023-01-03T09:51:30.977Z,18.47
2023-01-03T09:53:58.396Z,18.63
2023-01-03T09:56:25.177Z,18.39
2023-01-03T09:58:56.001Z,18.51
2023-01-03T10:01:36.941Z,18.37
2023-01-03T10:04:31.661Z,18.70
2023-01-03T10:07:08.277Z,18.43
2023-01-03T10:09:46.925Z,18.70
2023-01-03T10:12:31.474Z,18.86
2023-01-03T10:15:12.407Z,18.75
2023-01-03T10:17:52.198Z,18.66
2023-01-03T10:20:33.706Z,18.11
2023-01-03T10:23:01.605Z,18.30
2023-01-03T10:25:30.332Z,18.64
2023-01-03T10:28:04.802Z,18.70
2023-01-03T10:30:50.663Z,18.87
2023-01-03T10:33:31.885Z,18.88
2023-01-03T10:36:01.001Z,18.74
2023-01-03T10:38:28.490Z,18.88
2023-01-03T10:40:57.959Z,18.47
2023-01-03T10:43:31.099Z,18.33
2023-01-03T10:46:00.712Z,18.17
2023-01-03T10:49:00.321Z,19.09
2023-01-03T10:51:30.751Z,19.12
2023-01-03T10:54:00.112Z,19.25
2023-01-03T10:56:30.917Z,18.56
2023-01-03T10:59:12.213Z,19.13
2023-01-03T11:01:40.052Z,19.12
2023-01-03T11:04:15.268Z,18.22
2023-01-03T11:06:59.174Z,18.67
2023-01-03T11:09:32.762Z,18.25
2023-01-03T11:12:05.739Z,18.77
2023-01-03T11:14:33.181Z,18.81
2023-01-03T11:17:02.656Z,19.28
2023-01-03T11:19:31.960Z,19.56
2023-01-03T11:22:09.605Z,19.68
2023-01-03T11:35:23.925Z,18.49
2023-01-03T11:38:02.758Z,18.81
2023-01-03T11:40:52.451Z,19.14
2023-01-03T11:43:38.658Z,19.15
2023-01-03T11:46:23.376Z,19.62
2023-01-03T11:49:07.388Z,19.49
2023-01-03T11:51:41.615Z,19.28
2023-01-03T11:54:29.764Z,19.19
2023-01-03T11:57:03.849Z,18.75
2023-01-03T11:59:50.350Z,19.00
2023-01-03T12:02:49.956Z,19.26
2023-01-03T12:05:35.791Z,19.47
2023-01-03T12:08:17.128Z,19.44
2023-01-03T12:10:54.350Z,19.30
2023-01-03T12:13:30.093Z,18.91
2023-01-03T12:16:04.630Z,19.30
2023-01-03T12:18:42.551Z,19.36
2023-01-03T12:21:14.749Z,18.92
2023-01-03T12:23:47.492Z,18.74
2023-01-03T12:26:16.852Z,18.68
2023-01-03T12:28:49.821Z,18.89
2023-01-03T12:31:31.704Z,19.07
2023-01-03T12:34:10.430Z,18.86
2023-01-03T12:36:43.510Z,18.90
2023-01-03T12:39:33.684Z,18.19
2023-01-03T12:42:10.868Z,18.43
2023-01-03T12:44:42.335Z,18.34
2023-01-03T12:47:29.284Z,18.99
2023-01-03T12:50:01.679Z,18.84
2023-01-03T12:52:32.597Z,18.93
2023-01-03T12:55:06.856Z,18.81
2023-01-03T12:57:56.210Z,18.58
2023-01-03T13:00:41.357Z,19.18
2023-01-03T13:03:18.927Z,19.41
2023-01-03T13:05:49.513Z,19.07
2023-01-03T13:08:26.292Z,19.35
2023-01-03T13:10:57.025Z,19.06
2023-01-03T13:13:26.253Z,19.25
2023-01-03T13:15:54.257Z,19.40
2023-01-03T13:18:35.956Z,19.11
2023-01-03T13:21:43.580Z,19.36
2023-01-03T13:24:11.214Z,19.43
2023-01-03T13:26:38.512Z,19.60
2023-01-03T13:29:44.291Z,19.30
2023-01-03T13:32:17.144Z,18.51
2023-01-03T13:34:44.474Z,18.63
2023-01-03T13:37:19.440Z,18.60
2023-01-03T13:40:45.151Z,19.40
2023-01-03T13:43:18.401Z,19.03
2023-01-03T13:45:56.108Z,19.04
2023-01-03T13:48:29.966Z,19.46
2023-01-03T13:51:28.595Z,19.30
2023-01-03T13:54:00.350Z,19.25
2023-01-03T13:56:30.739Z,19.52
2023-01-03T13:59:18.775Z,19.73
2023-01-03T14:02:00.893Z,19.96
2023-01-03T14:05:01.156Z,19.87
2023-01-03T14:08:01.881Z,20.09
2023-01-03T14:10:57.034Z,20.32
2023-01-03T14:13:36.873Z,20.10
2023-01-03T14:16:25.852Z,20.59
2023-01-03T14:19:12.838Z,20.28
2023-01-03T14:21:45.306Z,20.37
2023-01-03T14:24:24.988Z,19.81
2023-01-03T14:26:52.913Z,20.28
2023-01-03T14:29:23.592Z,20.23
2023-01-03T14:31:53.844Z,20.00
2023-01-03T14:34:32.849Z,20.15
2023-01-03T14:37:06.521Z,19.54
2023-01-03T14:42:02.379Z,18.99
2023-01-03T14:44:30.358Z,19.51
2023-01-03T14:47:00.016Z,19.75
2023-01-03T14:49:37.937Z,20.01
2023-01-03T14:52:08.776Z,19.56
2023-01-03T14:54:37.872Z,19.82
2023-01-03T14:57:04.698Z,19.03
2023-01-03T14:59:34.259Z,19.70
2023-01-03T15:02:02.192Z,20.08
2023-01-03T15:04:32.097Z,19.80
2023-01-03T15:07:08.004Z,20.24
2023-01-03T15:09:40.479Z,19.98
2023-01-03T15:12:08.246Z,19.75
2023-01-03T15:14:37.375Z,19.63
2023-01-03T15:17:07.717Z,19.88
2023-01-03T15:19:39.042Z,19.55
2023-01-03T15:22:09.765Z,20.05
2023-01-03T15:24:43.461Z,20.04
2023-01-03T15:27:47.415Z,19.99
2023-01-03T15:30:21.515Z,20.55
2023-01-03T15:33:00.701Z,20.04
2023-01-03T15:35:37.240Z,20.02
2023-01-03T15:38:13.802Z,20.53
2023-01-03T15:40:41.445Z,20.54
2023-01-03T15:43:16.236Z,20.15
2023-01-03T15:45:43.664Z,20.00
2023-01-03T15:48:19.514Z,19.26
2023-01-03T15:50:49.935Z,20.19
2023-01-03T15:53:29.914Z,20.39
2023-01-03T15:56:01.781Z,20.17
2023-01-03T15:58:29.443Z,19.39
2023-01-03T16:00:57.185Z,20.36
2023-01-03T16:03:27.828Z,20.43
2023-01-03T16:05:56.025Z,20.54
2023-01-03T16:08:29.648Z,20.18
2023-01-03T16:10:58.608Z,20.27
2023-01-03T16:13:29.343Z,19.92
2023-01-03T16:15:58.252Z,20.00
2023-01-03T16:18:34.759Z,19.40
2023-01-03T16:21:04.110Z,19.67
2023-01-03T16:23:33.591Z,20.16
2023-01-03T16:26:00.935Z,20.13
2023-01-03T16:28:30.161Z,19.83
2023-01-03T16:31:02.584Z,20.17
2023-01-03T16:33:35.323Z,20.07
2023-01-03T16:36:05.349Z,20.53
2023-01-03T16:38:34.087Z,19.89
2023-01-03T16:41:01.345Z,19.74
2023-01-03T16:43:29.014Z,19.89
2023-01-03T16:45:59.617Z,20.07
2023-01-03T16:48:35.295Z,20.54
2023-01-03T16:51:04.422Z,20.07
2023-01-03T16:53:36.574Z,20.78
2023-01-03T16:56:04.961Z,20.54
2023-01-03T16:58:32.354Z,20.57
2023-01-03T17:00:59.750Z,20.63
2023-01-03T17:03:27.294Z,20.27
2023-01-03T17:05:54.832Z,20.36
2023-01-03T17:08:26.125Z,19.85
2023-01-03T17:10:55.305Z,20.27
2023-01-03T17:13:29.868Z,20.70
2023-01-03T17:15:57.875Z,20.50
2023-01-03T17:18:26.556Z,19.99
2023-01-03T17:20:58.178Z,19.71
2023-01-03T17:23:28.142Z,20.19
2023-01-03T17:25:56.371Z,20.36
2023-01-03T17:28:24.126Z,20.21
2023-01-03T17:30:51.692Z,20.71
2023-01-03T17:33:19.173Z,20.83
2023-01-03T17:35:48.387Z,20.59
2023-01-03T17:38:26.087Z,20.59
2023-01-03T17:40:55.775Z,20.72
2023-01-03T17:43:24.929Z,20.81
2023-01-03T17:45:55.090Z,20.66
2023-01-03T17:48:22.442Z,20.63
2023-01-03T17:50:51.274Z,21.05
2023-01-03T17:53:21.955Z,20.91
2023-01-03T17:55:48.716Z,20.92
2023-01-03T17:58:22.486Z,21.07
2023-01-03T18:00:51.847Z,20.63
2023-01-03T18:03:19.091Z,20.80
2023-01-03T18:05:46.508Z,20.66
2023-01-03T18:08:18.824Z,20.72
2023-01-03T18:10:47.710Z,20.74
2023-01-03T18:13:23.080Z,20.83
2023-01-03T18:18:19.934Z,21.32
2023-01-03T18:20:47.499Z,21.36
2023-01-03T18:23:18.610Z,20.86
2023-01-03T18:25:46.833Z,21.32
2023-01-03T18:28:19.235Z,21.31
2023-01-03T18:30:47.950Z,21.33
2023-01-03T18:33:15.459Z,20.82
2023-01-03T18:35:43.515Z,21.15
2023-01-03T18:38:23.856Z,20.81
2023-01-03T18:40:51.725Z,20.83
2023-01-03T18:43:20.661Z,20.95
2023-01-03T18:45:50.415Z,20.19
2023-01-03T18:48:19.405Z,20.43
2023-01-03T18:50:55.641Z,20.61
2023-01-03T18:53:28.724Z,20.80
2023-01-03T18:55:56.236Z,20.62
2023-01-03T18:58:31.763Z,20.91
2023-01-03T19:01:00.722Z,20.52
2023-01-03T19:03:30.328Z,20.74
2023-01-03T19:05:59.302Z,21.16
2023-01-03T19:08:29.598Z,21.01
2023-01-03T19:11:04.245Z,21.12
2023-01-03T19:13:33.353Z,20.96
2023-01-03T19:16:02.166Z,21.14
2023-01-03T19:18:29.892Z,21.22
2023-01-03T19:20:57.318Z,20.74
2023-01-03T19:23:26.890Z,21.18
2023-01-03T19:25:55.951Z,20.76
2023-01-03T19:28:25.370Z,20.77
2023-01-03T19:30:52.911Z,21.20
2023-01-03T19:33:23.414Z,21.68
2023-01-03T19:35:50.707Z,21.67
2023-01-03T19:38:17.956Z,20.89
2023-01-03T19:40:46.189Z,21.05
2023-01-03T19:43:19.824Z,21.06
2023-01-03T19:45:47.347Z,21.18
2023-01-03T19:48:18.008Z,20.74
2023-01-03T19:50:47.689Z,21.11
2023-01-03T19:53:15.215Z,21.18
2023-01-03T19:55:45.666Z,21.10
2023-01-03T19:58:17.808Z,21.72
2023-01-03T20:00:46.601Z,21.03
2023-01-03T20:03:26.102Z,21.23
2023-01-03T20:05:55.562Z,21.14
2023-01-03T20:08:23.042Z,21.23
2023-01-03T20:10:52.846Z,21.36
2023-01-03T20:13:22.327Z,21.12
2023-01-03T20:15:51.087Z,21.01
2023-01-03T20:18:29.465Z,20.85
2023-01-03T20:21:04.077Z,20.84
2023-01-03T20:23:35.147Z,21.39
2023-01-03T20:26:03.378Z,21.41
2023-01-03T20:28:30.626Z,21.36
2023-01-03T20:30:59.303Z,21.50
2023-01-03T20:33:27.324Z,21.37
2023-01-03T20:36:22.627Z,21.31
2023-01-03T20:38:50.142Z,21.19
2023-01-03T20:41:19.302Z,21.27
2023-01-03T20:43:46.884Z,21.72
2023-01-03T20:46:17.406Z,21.13
2023-01-03T20:48:45.056Z,21.56
2023-01-03T20:51:13.857Z,21.75
2023-01-03T20:53:43.084Z,21.86
2023-01-03T20:56:12.115Z,21.43
2023-01-03T20:58:40.528Z,21.70
2023-01-03T21:01:08.772Z,21.89
2023-01-03T21:03:38.137Z,21.59
2023-01-03T21:06:18.891Z,21.31
2023-01-03T21:08:46.330Z,21.78
2023-01-03T21:11:13.791Z,21.91
2023-01-03T21:13:41.135Z,21.90
2023-01-03T21:16:21.921Z,22.01
2023-01-03T21:18:49.311Z,21.92
2023-01-03T21:21:21.141Z,22.26
2023-01-03T21:23:48.877Z,22.15
2023-01-03T21:26:15.648Z,21.77
2023-01-03T21:28:43.224Z,21.90
2023-01-03T21:31:17.587Z,21.62
2023-01-03T21:33:45.752Z,21.52
2023-01-03T21:36:20.852Z,21.67
2023-01-03T21:38:52.548Z,21.77
2023-01-03T21:41:21.137Z,21.60
2023-01-03T21:43:48.913Z,21.88
2023-01-03T21:46:19.272Z,22.05
2023-01-03T21:48:47.532Z,22.06
2023-01-03T21:51:20.828Z,22.11
2023-01-03T21:53:59.579Z,21.90
2023-01-03T21:56:27.941Z,22.00
2023-01-03T21:58:55.242Z,21.70
2023-01-03T22:01:29.087Z,21.68
2023-01-03T22:03:56.695Z,21.92
2023-01-03T22:06:24.308Z,21.82
2023-01-03T22:08:52.159Z,22.00
2023-01-03T22:11:21.214Z,22.04
2023-01-03T22:13:49.504Z,22.05
2023-01-03T22:16:17.383Z,21.95
2023-01-03T22:18:44.859Z,22.11
2023-01-03T22:21:12.132Z,21.86
2023-01-03T22:23:40.030Z,22.12
2023-01-03T22:26:08.801Z,22.14
2023-01-03T22:28:39.815Z,21.70
2023-01-03T22:31:11.589Z,22.21
2023-01-03T22:33:39.019Z,22.14
2023-01-03T22:36:07.479Z,22.05
2023-01-03T22:38:35.255Z,22.33
2023-01-03T22:41:02.536Z,22.17
2023-01-03T22:43:30.103Z,22.32
2023-01-03T22:45:58.907Z,22.45
2023-01-03T22:48:26.281Z,22.62
2023-01-03T22:50:53.141Z,22.48
2023-01-03T22:53:19.833Z,22.46
2023-01-03T22:55:47.275Z,22.42
2023-01-03T22:58:14.858Z,22.47
2023-01-03T23:00:42.569Z,22.48
2023-01-03T23:03:11.511Z,22.35
2023-01-03T23:05:38.789Z,22.42
2023-01-03T23:08:06.974Z,22.45
2023-01-03T23:10:34.277Z,22.48
2023-01-03T23:13:01.746Z,22.39
2023-01-03T23:15:30.530Z,22.54
2023-01-03T23:17:57.985Z,22.44
2023-01-03T23:20:29.276Z,22.28
2023-01-03T23:22:59.899Z,22.31
2023-01-03T23:25:28.071Z,22.46
2023-01-03T23:27:55.460Z,22.32
2023-01-03T23:30:22.215Z,22.45
2023-01-03T23:32:49.810Z,22.52
2023-01-03T23:35:16.982Z,22.48
2023-01-03T23:37:45.922Z,22.48
2023-01-03T23:40:13.438Z,22.45
2023-01-03T23:42:40.151Z,22.24
2023-01-03T23:45:08.331Z,22.50
2023-01-03T23:47:35.722Z,22.56
2023-01-03T23:50:03.244Z,22.38
2023-01-03T23:52:32.311Z,22.24
2023-01-03T23:55:06.821Z,22.23
2023-01-03T23:57:37.987Z,22.44
